Santa Cruz, CA

12:31 AM PDT on May 30, 2015 (GMT -0700)
San Jose International | | Change Station
CLOSE
Current Station
Airport
Location: San Jose,
Elevation: 59 ft
Nearby Weather Stations

Elev 59 ft 37.36 °N, 121.92 °W | Updated 38 minutes ago

Overcast
Overcast
55 °F
Feels Like 55 °F
N
0
Wind Variable Wind from North

Today
High -- | Low -- °F
--% Chance of Precip.
Yesterday
High -- | Low -- °F
Precip. -- in
5:50 AM 8:20 PM
Waxing Gibbous, 89% visible
Pressure 29.96 in
Visibility 10.0 miles
Clouds Scattered Clouds 1100 ft
Dew Point 50 °F
Humidity 83%
Rainfall 0.00 in
Snow Depth Not available.
UV 0 out of 12
Pollen 5.60 out of 12
Air Quality Not available.
Flu Activity Sporadic
METAR KSJC 300653Z 00000KT 10SM SCT011 13/10 A2996 RMK AO2 SLP144 T01280100

More Conditions Fewer Conditions

Pressure 29.96 in
Visibility 10.0 miles
Clouds Scattered Clouds 1100 ft
Dew Point 50 °F
Humidity 83%
Rainfall 0.00 in
Snow Depth Not available.
UV 0 out of 12
Pollen 5.60 out of 12
Air Quality Not available.
Flu Activity Sporadic
METAR KSJC 300653Z 00000KT 10SM SCT011 13/10 A2996 RMK AO2 SLP144 T01280100

More Conditions Fewer Conditions

10-Day Weather Forecast

Almanac

Astronomy

May. 30, 2015 Rise Set
Actual Time
Civil Twilight
Nautical Twilight
Astronomical Twilight
Moon
Length of Visible Light
Length of Day
Tomorrow will be .
, % of the Moon is Illuminated

Today's Extremes

State Highs State Lows

Community

WunderPhotos

Upload Photos

1,825,470 photos uploaded!

WunderBlogs® & News

Nearby

Air Quality

  Air Quality AQ Index Pollutant
Not available.

Snow Depth

Station Depth Elevation

Earthquake Activity

City Distance Mag. Time & Date
Minimum magnitude displayed is 2.5.

Coastal Water Temperatures

Place Temperature

Stations

Nearby Weather Stations

Station Location Temp. Windchill Dew Point Humidity Wind Precip. Elev Updated Type